Data for 07/20/2015

Time Sea-Level Adjusted Pressure Absolute Pressure Temperature Relative Humidity Dew Point   
(mb) (inHg) (mb) (inHg) (C) (F) (%) (C) (F)
00:05 1022 30.18 852 25.16 20 68 38 5.5 41.8
00:10 1022 30.18 852 25.16 20 67.9 38 5.4 41.8
00:15 1022 30.18 852 25.16 20 67.9 38 5.4 41.7
00:20 1022 30.18 852 25.16 20 68 39 5.6 42.1
00:25 1022 30.18 852 25.16 20 67.9 39 5.8 42.5
00:30 1022 30.18 852 25.16 19.9 67.9 39 5.8 42.4
00:35 1022 30.18 852 25.16 20 67.9 40 5.9 42.7
00:40 1022 30.18 852 25.16 19.9 67.8 39 5.8 42.5
00:45 1023 30.21 852 25.16 19.9 67.8 40 5.9 42.6
00:50 1023 30.21 852 25.16 19.8 67.7 40 5.9 42.6
00:55 1023 30.21 852 25.16 19.8 67.6 40 5.8 42.5
01:00 1023 30.21 852 25.16 19.8 67.6 40 5.9 42.6
01:05 1023 30.21 852 25.16 19.7 67.4 40 6 42.8
01:10 1023 30.21 852 25.16 19.6 67.3 40 6 42.7
01:15 1023 30.21 852 25.16 19.6 67.2 41 6 42.7
01:20 1023 30.21 852 25.16 19.5 67.1 41 6 42.8
01:25 1023 30.21 852 25.16 19.4 67 41 6.1 43
01:30 1023 30.21 852 25.16 19.3 66.8 42 6.2 43.2
01:35 1023 30.21 852 25.16 19.2 66.6 42 6.1 43.1
01:40 1023 30.21 852 25.16 19.2 66.5 42 6.2 43.1
01:45 1023 30.21 852 25.16 19.2 66.5 42 6.2 43.1
01:50 1023 30.21 852 25.16 19.2 66.5 42 6.2 43.2
01:55 1023 30.21 852 25.16 19.1 66.3 43 6.2 43.2
02:00 1023 30.21 852 25.16 18.9 66 43 6.1 43
02:05 1023 30.21 852 25.16 18.9 66 43 6.1 42.9
02:10 1023 30.21 852 25.16 18.9 66.1 43 6.2 43.1
02:15 1023 30.21 852 25.16 18.9 66 43 6 42.9
02:20 1023 30.21 852 25.16 18.9 66 43 6.2 43.2
02:25 1023 30.21 852 25.16 18.7 65.7 44 6.3 43.4
02:30 1023 30.21 852 25.16 18.4 65.1 45 6.4 43.6
02:35 1023 30.21 852 25.16 18 64.4 47 6.7 44
02:40 1023 30.21 852 25.16 17.3 63.2 49 6.7 44.1
02:45 1023 30.21 852 25.16 16.5 61.7 52 6.6 43.9
02:50 1023 30.21 852 25.16 15.9 60.7 53 6.4 43.6
02:55 1023 30.21 852 25.16 15.8 60.4 53 6.4 43.6
03:00 1023 30.21 852 25.16 15.6 60 54 6.4 43.5
03:05 1023 30.21 852 25.16 15.6 60.1 53 6.3 43.3
03:10 1023 30.21 852 25.16 15.8 60.4 53 6.3 43.3
03:15 1023 30.21 852 25.16 15.4 59.7 55 6.5 43.6
03:20 1023 30.21 852 25.16 15.4 59.7 54 6.3 43.3
03:25 1023 30.21 852 25.16 15.5 59.8 53 6 42.7
03:30 1023 30.21 852 25.16 15.6 60.1 53 6.2 43.1
03:35 1023 30.21 852 25.16 15.6 60.1 53 6.1 43
03:40 1023 30.21 852 25.16 15.4 59.8 53 6 42.9
03:45 1023 30.21 852 25.16 15.3 59.6 55 6.5 43.7
03:50 1023 30.21 852 25.16 15.4 59.7 54 6.1 43
03:55 1023 30.21 852 25.16 15.2 59.4 54 6.1 43
04:00 1023 30.21 852 25.16 15 58.9 55 6.1 43
04:05 1023 30.21 852 25.16 15 59 54 5.9 42.6
04:10 1023 30.21 852 25.16 15.1 59.1 55 6.1 42.9
04:15 1023 30.21 852 25.16 15.1 59.2 55 6.3 43.3
04:20 1023 30.21 852 25.16 15.3 59.5 54 6.1 43
04:25 1023 30.21 852 25.16 15.2 59.4 54 6.2 43.2
04:30 1023 30.21 852 25.16 15.2 59.4 54 6.1 42.9
04:35 1023 30.21 852 25.16 15.2 59.4 54 6 42.8
04:40 1023 30.21 852 25.16 15.2 59.3 54 6 42.8
04:45 1023 30.21 852 25.16 14.9 58.9 55 5.9 42.6
04:50 1023 30.21 852 25.16 14.8 58.6 55 5.8 42.4
04:55 1023 30.21 852 25.16 14.9 58.8 54 5.7 42.3
05:00 1023 30.21 852 25.16 14.9 58.9 53 5.6 42.1
05:05 1023 30.21 852 25.16 14.8 58.7 55 5.9 42.7
05:10 1023 30.21 852 25.16 14.9 58.8 55 6 42.9
05:15 1023 30.21 852 25.16 14.9 58.8 55 6 42.9
05:20 1023 30.21 852 25.16 15 58.9 55 6 42.8
05:25 1023 30.21 852 25.16 15.1 59.1 55 6.1 43
05:30 1023 30.21 852 25.16 15.1 59.1 54 6 42.9
05:35 1023 30.21 852 25.16 15.1 59.1 54 6 42.7
05:40 1023 30.21 852 25.16 15.1 59.3 54 6 42.7
05:45 1023 30.21 852 25.16 15.2 59.4 54 6 42.8
05:50 1023 30.21 852 25.16 15.3 59.5 54 6.1 43.1
05:55 1023 30.21 852 25.16 15.3 59.6 53 6 42.7
06:00 1023 30.21 852 25.16 15.4 59.7 53 6 42.7
06:05 1023 30.21 852 25.16 15.5 59.8 57 7.1 44.8
06:10 1023 30.21 852 25.16 15.8 60.4 52 6 42.8
06:15 1023 30.21 852 25.16 15.9 60.5 51 6 42.7
06:20 1023 30.21 852 25.16 16.1 61 51 6.2 43.2
06:25 1023 30.21 852 25.16 16.4 61.4 51 6.2 43.2
06:30 1023 30.21 852 25.16 16.5 61.7 51 6.5 43.7
06:35 1023 30.21 852 25.16 16.9 62.4 53 7.5 45.4
06:40 1023 30.21 852 25.16 17.3 63.2 50 7 44.7
06:45 1023 30.21 852 25.16 17.5 63.6 48 6.6 43.9
06:50 1023 30.21 852 25.16 17.7 63.8 48 6.6 43.9
06:55 1023 30.21 852 25.16 18.2 64.8 47 6.8 44.2
07:00 1022 30.18 852 25.16 18.6 65.5 44 6.4 43.5
07:05 1023 30.21 852 25.16 18.5 65.2 45 6.6 43.8
07:10 1023 30.21 852 25.16 18.9 65.9 43 6.3 43.3
07:15 1023 30.21 852 25.16 19.1 66.3 44 6.7 44
07:20 1023 30.21 852 25.16 19.8 67.6 41 6.3 43.3
07:25 1022 30.18 852 25.16 20.2 68.4 45 8.1 46.7
07:30 1022 30.18 852 25.16 20.1 68.1 44 7.4 45.4
07:35 1022 30.18 852 25.16 20.1 68.1 42 6.8 44.2
07:40 1022 30.18 852 25.16 20.3 68.5 39 6.1 43
07:45 1022 30.18 852 25.16 20.6 69.1 39 6.4 43.5
07:50 1022 30.18 851 25.13 20.9 69.6 40 7.1 44.7
07:55 1022 30.18 851 25.13 21.4 70.6 38 6.7 44
08:00 1022 30.18 851 25.13 21.4 70.5 37 6.1 43
08:05 1022 30.18 851 25.13 22.1 71.9 33 5.4 41.7
08:10 1022 30.18 851 25.13 22.4 72.3 33 5.5 41.9
08:15 1022 30.18 851 25.13 22.9 73.2 32 5.5 41.9
08:20 1022 30.18 851 25.13 22.9 73.2 32 5.6 42.1
08:25 1022 30.18 851 25.13 23.1 73.6 32 5.6 42.1
08:30 1022 30.18 851 25.13 23.7 74.7 31 5.6 42.1
08:35 1022 30.18 851 25.13 24.6 76.2 28 5.2 41.4
08:40 1022 30.18 851 25.13 24.8 76.6 28 5.4 41.8
08:45 1022 30.18 851 25.13 24.8 76.6 30 6.1 43
08:50 1022 30.18 851 25.13 24.5 76.1 29 5.4 41.7
08:55 1022 30.18 851 25.13 25 77 30 6.5 43.6
09:00 1022 30.18 851 25.13 24.7 76.4 31 6.7 44.1
09:05 1022 30.18 851 25.13 24.6 76.2 31 6.4 43.5
09:10 1022 30.18 851 25.13 24.7 76.4 30 6.2 43.2
09:15 1022 30.18 851 25.13 24.8 76.7 31 7 44.6
09:20 1022 30.18 851 25.13 24.9 76.8 29 5.6 42.1
09:25 1022 30.18 851 25.13 25.5 77.8 29 6.4 43.5
09:30 1022 30.18 851 25.13 25 77 28 5.2 41.4
09:35 1022 30.18 851 25.13 25.4 77.7 27 5.3 41.5
09:40 1022 30.18 851 25.13 25.1 77.2 27 4.8 40.7
09:45 1022 30.18 851 25.13 25.5 77.9 27 5.2 41.3
09:50 1022 30.18 851 25.13 25.5 77.9 26 5 41
09:55 1022 30.18 851 25.13 26.2 79.1 25 4.9 40.9
10:00 1022 30.18 851 25.13 26.4 79.6 23 4.1 39.3
10:05 1022 30.18 851 25.13 27 80.5 21 3.3 38
10:10 1022 30.18 851 25.13 27.3 81.1 20 2.7 36.9
10:15 1022 30.18 851 25.13 27.3 81.2 22 3.8 38.9
10:20 1022 30.18 851 25.13 26.3 79.4 22 3.1 37.6
10:25 1022 30.18 851 25.13 26.2 79.1 23 3.9 39
10:30 1021 30.15 851 25.13 26.5 79.7 22 3.2 37.8
10:35 1021 30.15 851 25.13 27.5 81.4 20 2.9 37.2
10:40 1021 30.15 851 25.13 28.4 83.1 19 3.1 37.5
10:45 1021 30.15 851 25.13 28.5 83.3 18 2.2 36
10:50 1021 30.15 851 25.13 27.6 81.6 19 2.4 36.3
10:55 1021 30.15 851 25.13 27.4 81.4 21 3.4 38.1
11:00 1021 30.15 851 25.13 27.9 82.2 20 3.5 38.2
11:05 1021 30.15 850 25.1 26.8 80.2 21 3 37.5
11:10 1021 30.15 850 25.1 27.7 81.8 20 3.3 37.9
11:15 1021 30.15 850 25.1 28.2 82.7 18 2.1 35.7
11:20 1021 30.15 850 25.1 28.4 83.1 19 2.7 36.9
11:25 1021 30.15 850 25.1 28.8 83.8 19 2.9 37.3
11:30 1021 30.15 850 25.1 29.4 84.9 16 1.6 34.9
11:35 1021 30.15 850 25.1 28.7 83.7 18 2.4 36.3
11:40 1021 30.15 850 25.1 28.1 82.6 19 2.5 36.5
11:45 1021 30.15 850 25.1 28.6 83.5 19 2.8 37
11:50 1021 30.15 850 25.1 29 84.1 18 2.7 36.8
11:55 1021 30.15 850 25.1 28.5 83.3 17 1.8 35.3
12:00 1021 30.15 850 25.1 29.3 84.7 18 3 37.4
12:05 1021 30.15 850 25.1 29.5 85.1 17 2.5 36.5
12:10 1021 30.15 850 25.1 29 84.3 18 2.6 36.7
12:15 1021 30.15 850 25.1 29.8 85.6 17 2.7 36.9
12:20 1021 30.15 850 25.1 30.1 86.2 18 3.2 37.7
12:25 1021 30.15 850 25.1 29.6 85.3 18 3.5 38.3
12:30 1021 30.15 850 25.1 29.1 84.4 20 4 39.3
12:35 1020 30.12 850 25.1 28.3 83 19 2.8 37
12:40 1020 30.12 850 25.1 28.7 83.7 19 3 37.5
12:45 1020 30.12 850 25.1 27.7 81.8 21 3.4 38.1
12:50 1020 30.12 849 25.07 28.5 83.3 19 2.8 37.1
12:55 1020 30.12 849 25.07 28.5 83.3 19 3.2 37.8
13:00 1020 30.12 849 25.07 28.4 83 20 3.3 37.9
13:05 1020 30.12 849 25.07 29.8 85.7 18 3.4 38
13:10 1020 30.12 849 25.07 30.6 87.1 15 1.7 35.1
13:15 1020 30.12 849 25.07 31 87.9 15 2 35.7
13:20 1020 30.12 849 25.07 30.2 86.3 17 2.9 37.1
13:25 1020 30.12 849 25.07 30.1 86.1 19 4.5 40.1
13:30 1020 30.12 849 25.07 29 84.1 22 5.5 41.9
13:35 1020 30.12 849 25.07 27.4 81.4 22 4.3 39.7
13:40 1020 30.12 849 25.07 27.1 80.7 23 4.5 40.1
13:45 1020 30.12 849 25.07 27.2 81 22 4 39.2
13:50 1020 30.12 849 25.07 26.9 80.5 22 3.5 38.4
13:55 1020 30.12 849 25.07 27 80.5 22 3.9 39
14:00 1020 30.12 849 25.07 27 80.6 23 4.6 40.3
14:05 1020 30.12 849 25.07 26.3 79.4 25 5.1 41.3
14:10 1020 30.12 849 25.07 26.1 78.9 24 4.3 39.7
14:15 1020 30.12 849 25.07 26.3 79.3 23 3.5 38.3
14:20 1020 30.12 849 25.07 26.3 79.3 29 6.9 44.5
14:25 1020 30.12 849 25.07 25.9 78.7 25 4.5 40.1
14:30 1020 30.12 849 25.07 26.3 79.4 25 5.2 41.4
14:35 1020 30.12 849 25.07 26.8 80.2 23 4.3 39.7
14:40 1020 30.12 849 25.07 26.2 79.1 28 6.4 43.4
14:45 1019 30.09 849 25.07 26.3 79.4 26 5.7 42.2
14:50 1019 30.09 849 25.07 26.6 79.9 23 4.4 39.9
14:55 1019 30.09 848 25.04 27.2 80.9 26 6.1 43
15:00 1019 30.09 848 25.04 27.2 80.9 25 5.5 41.9
15:05 1019 30.09 848 25.04 27.8 82 21 3.5 38.3
15:10 1019 30.09 848 25.04 28.4 83 20 3.4 38.1
15:15 1019 30.09 848 25.04 28.1 82.6 20 3.5 38.3
15:20 1019 30.09 848 25.04 28.4 83.2 22 4.7 40.5
15:25 1019 30.09 848 25.04 27.8 82.1 21 3.9 39
15:30 1019 30.09 848 25.04 27.5 81.4 22 4.5 40
15:35 1019 30.09 848 25.04 27.5 81.5 22 3.9 39.1
15:40 1019 30.09 848 25.04 27.5 81.4 24 5.2 41.4
15:45 1019 30.09 848 25.04 27.9 82.3 19 2.7 36.9
15:50 1019 30.09 848 25.04 28.9 83.9 18 2.5 36.4
15:55 1019 30.09 848 25.04 29.6 85.2 18 3 37.4
16:00 1019 30.09 848 25.04 30.1 86.2 17 2.5 36.5
16:05 1019 30.09 848 25.04 29.8 85.6 18 3.4 38.1
16:10 1019 30.09 848 25.04 28.7 83.6 19 3.4 38.1
16:15 1019 30.09 848 25.04 28.7 83.7 19 3.5 38.2
16:20 1019 30.09 848 25.04 28.3 82.9 20 3.8 38.8
16:25 1019 30.09 848 25.04 28.1 82.6 20 3.3 38
16:30 1019 30.09 848 25.04 27.9 82.3 20 3.3 38
16:35 1019 30.09 848 25.04 27.8 82 21 3.7 38.6
16:40 1019 30.09 848 25.04 27.5 81.5 21 3.6 38.5
16:45 1019 30.09 848 25.04 27.5 81.5 21 3.7 38.6
16:50 1019 30.09 848 25.04 27 80.6 23 4.6 40.2
16:55 1019 30.09 848 25.04 26.4 79.4 21 2.8 37.1
17:00 1019 30.09 848 25.04 26.5 79.7 22 3.6 38.4
17:05 1019 30.09 848 25.04 26.7 80 25 5.3 41.5
17:10 1019 30.09 848 25.04 26.3 79.4 26 5.4 41.7
17:15 1019 30.09 848 25.04 25.9 78.7 24 4.3 39.7
17:20 1019 30.09 848 25.04 25.7 78.2 25 4.2 39.5
17:25 1019 30.09 848 25.04 25.5 77.9 26 4.7 40.4
17:30 1019 30.09 848 25.04 25.1 77.2 25 4.2 39.5
17:35 1019 30.09 848 25.04 25.1 77.1 25 4.2 39.5
17:40 1019 30.09 848 25.04 25.3 77.5 25 4 39.1
17:45 1019 30.09 848 25.04 25.4 77.7 24 3.8 38.8
17:50 1019 30.09 848 25.04 25.3 77.5 22 2.5 36.5
17:55 1019 30.09 848 25.04 25.4 77.8 21 1.8 35.3
18:00 1019 30.09 848 25.04 25.4 77.7 22 2.3 36.1
18:05 1018 30.06 848 25.04 25.4 77.7 23 2.8 37
18:10 1018 30.06 847 25.01 25.6 78 21 2.1 35.7
18:15 1018 30.06 847 25.01 25.9 78.6 20 1.4 34.6
18:20 1018 30.06 847 25.01 26.2 79.1 25 5.1 41.2
18:25 1018 30.06 847 25.01 24.9 76.8 28 5.6 42.1
18:30 1018 30.06 847 25.01 24.3 75.7 33 7.2 44.9
18:35 1018 30.06 847 25.01 23.3 74 38 8.5 47.3
18:40 1018 30.06 847 25.01 22.8 73 38 8 46.4
18:45 1018 30.06 847 25.01 22.5 72.6 39 8 46.4
18:50 1018 30.06 847 25.01 22.5 72.5 42 9 48.2
18:55 1018 30.06 847 25.01 22.5 72.4 38 7.7 45.8
19:00 1018 30.06 847 25.01 22.5 72.5 36 7 44.6
19:05 1018 30.06 847 25.01 22.6 72.7 37 7.3 45.1
19:10 1018 30.06 847 25.01 22.5 72.5 37 7.2 44.9
19:15 1018 30.06 847 25.01 22.5 72.5 37 7.2 45
19:20 1018 30.06 847 25.01 22.4 72.4 38 7.6 45.6
19:25 1018 30.06 847 25.01 22.2 72 39 7.9 46.2
19:30 1018 30.06 847 25.01 22.1 71.8 40 8.2 46.8
19:35 1018 30.06 847 25.01 22.1 71.9 40 8 46.4
19:40 1018 30.06 847 25.01 22.2 72 38 7.5 45.6
19:45 1018 30.06 847 25.01 22.2 71.9 38 7.2 45
19:50 1018 30.06 847 25.01 22.1 71.8 37 6.8 44.3
19:55 1018 30.06 847 25.01 22.1 71.8 37 6.9 44.4
20:00 1018 30.06 847 25.01 21.9 71.4 37 6.8 44.2
20:05 1018 30.06 847 25.01 21.7 71 38 7.1 44.7
20:10 1018 30.06 847 25.01 21.5 70.7 39 7.3 45.1
20:15 1018 30.06 847 25.01 21.5 70.7 39 7.3 45.1
20:20 1018 30.06 847 25.01 21.6 70.8 40 7.7 45.8
20:25 1018 30.06 848 25.04 21.2 70.1 46 9.1 48.4
20:30 1018 30.06 848 25.04 20.8 69.4 45 8.5 47.2
20:35 1018 30.06 848 25.04 20.7 69.3 45 8.4 47.1
20:40 1018 30.06 848 25.04 21 69.8 43 8.2 46.7
20:45 1018 30.06 848 25.04 20.7 69.3 43 8 46.4
20:50 1018 30.06 848 25.04 20.6 69 43 7.7 45.8
20:55 1018 30.06 848 25.04 20.4 68.8 41 6.7 44.1
21:00 1018 30.06 847 25.01 20.5 68.9 42 7.1 44.9
21:05 1018 30.06 847 25.01 20.3 68.5 40 6.2 43.2
21:10 1018 30.06 847 25.01 20.5 68.9 41 6.8 44.3
21:15 1018 30.06 847 25.01 20.4 68.7 40 6.3 43.4
21:20 1018 30.06 847 25.01 20.2 68.4 41 6.6 44
21:25 1018 30.06 847 25.01 20.1 68.2 40 6.2 43.1
21:30 1018 30.06 847 25.01 20.2 68.3 40 6.2 43.2
21:35 1018 30.06 847 25.01 20 68.1 40 6.2 43.2
21:40 1018 30.06 847 25.01 19.9 67.8 41 6.5 43.6
21:45 1018 30.06 847 25.01 19.8 67.6 40 5.9 42.7
21:50 1018 30.06 847 25.01 19.9 67.8 39 5.8 42.5
21:55 1018 30.06 847 25.01 20 67.9 40 6.1 42.9
22:00 1018 30.06 847 25.01 19.9 67.8 39 5.7 42.3
22:05 1018 30.06 847 25.01 19.9 67.9 39 5.8 42.5
22:10 1018 30.06 847 25.01 19.9 67.9 39 5.8 42.5
22:15 1018 30.06 847 25.01 19.7 67.4 39 5.6 42.1
22:20 1018 30.06 848 25.04 19.7 67.5 39 5.6 42.1
22:25 1018 30.06 848 25.04 19.6 67.2 40 5.8 42.5
22:30 1018 30.06 848 25.04 19.4 66.9 40 5.5 41.9
22:35 1018 30.06 848 25.04 19.4 67 40 5.7 42.2
22:40 1018 30.06 847 25.01 19.3 66.7 40 5.5 41.9
22:45 1018 30.06 847 25.01 19.3 66.7 41 5.7 42.2
22:50 1018 30.06 847 25.01 19.1 66.5 41 5.8 42.4
22:55 1018 30.06 847 25.01 19 66.2 42 6 42.8
23:00 1018 30.06 847 25.01 18.7 65.6 43 6 42.8
23:05 1018 30.06 847 25.01 18.4 65.1 44 6.1 43
23:10 1018 30.06 847 25.01 18.3 65 44 6.1 43
23:15 1018 30.06 847 25.01 18.2 64.8 44 6 42.8
23:20 1018 30.06 847 25.01 18.2 64.8 44 6 42.8
23:25 1018 30.06 847 25.01 18.2 64.8 44 5.8 42.5
23:30 1018 30.06 847 25.01 18.3 64.9 44 5.9 42.7
23:35 1018 30.06 847 25.01 18.1 64.6 45 6.2 43.1
23:40 1018 30.06 847 25.01 18 64.4 45 5.9 42.6
23:45 1018 30.06 847 25.01 18.1 64.6 45 6 42.9
23:50 1018 30.06 847 25.01 18.1 64.5 45 5.9 42.7
23:55 1018 30.06 847 25.01 18.2 64.7 43 5.6 42.1
24:00 1018 30.06 847 25.01 18.3 65 44 6 42.9